sensor_id;sensor_type;location;lat;lon;timestamp;temperature;humidity
10911;DHT22;5508;49.150;11.030;2022-07-30T00:00:29;15.30;99.90
10911;DHT22;5508;49.150;11.030;2022-07-30T00:03:29;15.20;99.90
10911;DHT22;5508;49.150;11.030;2022-07-30T00:06:31;15.20;99.90
10911;DHT22;5508;49.150;11.030;2022-07-30T00:09:32;15.10;99.90
10911;DHT22;5508;49.150;11.030;2022-07-30T00:12:33;15.00;99.90
10911;DHT22;5508;49.150;11.030;2022-07-30T00:15:33;15.00;99.90
10911;DHT22;5508;49.150;11.030;2022-07-30T00:18:34;14.90;99.90
10911;DHT22;5508;49.150;11.030;2022-07-30T00:21:34;14.90;99.90
10911;DHT22;5508;49.150;11.030;2022-07-30T00:24:35;14.90;99.90
10911;DHT22;5508;49.150;11.030;2022-07-30T00:27:35;14.80;99.90
10911;DHT22;5508;49.150;11.030;2022-07-30T00:30:36;14.70;99.90
10911;DHT22;5508;49.150;11.030;2022-07-30T00:33:38;14.70;99.90
10911;DHT22;5508;49.150;11.030;2022-07-30T00:36:39;14.70;99.90
10911;DHT22;5508;49.150;11.030;2022-07-30T00:39:39;14.60;99.90
10911;DHT22;5508;49.150;11.030;2022-07-30T00:42:43;14.60;99.90
10911;DHT22;5508;49.150;11.030;2022-07-30T00:45:44;14.60;99.90
10911;DHT22;5508;49.150;11.030;2022-07-30T00:48:45;14.50;99.90
10911;DHT22;5508;49.150;11.030;2022-07-30T00:51:46;14.50;99.90
10911;DHT22;5508;49.150;11.030;2022-07-30T00:54:46;14.40;99.90
10911;DHT22;5508;49.150;11.030;2022-07-30T00:57:47;14.40;99.90
10911;DHT22;5508;49.150;11.030;2022-07-30T01:00:47;14.30;99.90
10911;DHT22;5508;49.150;11.030;2022-07-30T01:03:48;14.30;99.90
10911;DHT22;5508;49.150;11.030;2022-07-30T01:06:48;14.30;99.90
10911;DHT22;5508;49.150;11.030;2022-07-30T01:09:49;14.30;99.90
10911;DHT22;5508;49.150;11.030;2022-07-30T01:12:50;14.20;99.90
10911;DHT22;5508;49.150;11.030;2022-07-30T01:15:52;14.20;99.90
10911;DHT22;5508;49.150;11.030;2022-07-30T01:18:55;14.20;99.90
10911;DHT22;5508;49.150;11.030;2022-07-30T01:28:36;14.10;99.90
10911;DHT22;5508;49.150;11.030;2022-07-30T01:31:38;14.10;99.90
10911;DHT22;5508;49.150;11.030;2022-07-30T01:34:40;14.10;99.90
10911;DHT22;5508;49.150;11.030;2022-07-30T01:37:43;14.00;99.90
10911;DHT22;5508;49.150;11.030;2022-07-30T01:40:44;14.10;99.90
10911;DHT22;5508;49.150;11.030;2022-07-30T01:43:45;14.10;99.90
10911;DHT22;5508;49.150;11.030;2022-07-30T01:46:47;14.10;99.90
10911;DHT22;5508;49.150;11.030;2022-07-30T01:49:48;14.10;99.90
10911;DHT22;5508;49.150;11.030;2022-07-30T01:52:51;13.90;99.90
10911;DHT22;5508;49.150;11.030;2022-07-30T01:55:54;13.70;99.90
10911;DHT22;5508;49.150;11.030;2022-07-30T01:58:56;13.70;99.90
10911;DHT22;5508;49.150;11.030;2022-07-30T02:01:57;13.70;99.90
10911;DHT22;5508;49.150;11.030;2022-07-30T02:04:58;13.70;99.90
10911;DHT22;5508;49.150;11.030;2022-07-30T02:08:10;13.60;99.90
10911;DHT22;5508;49.150;11.030;2022-07-30T02:11:14;13.60;99.90
10911;DHT22;5508;49.150;11.030;2022-07-30T02:14:27;13.50;99.90
10911;DHT22;5508;49.150;11.030;2022-07-30T02:17:34;13.50;99.90
10911;DHT22;5508;49.150;11.030;2022-07-30T02:20:38;13.50;99.90
10911;DHT22;5508;49.150;11.030;2022-07-30T02:23:44;13.50;99.90
10911;DHT22;5508;49.150;11.030;2022-07-30T02:26:48;13.50;99.90
10911;DHT22;5508;49.150;11.030;2022-07-30T02:29:50;13.40;99.90
10911;DHT22;5508;49.150;11.030;2022-07-30T02:32:54;13.40;99.90
10911;DHT22;5508;49.150;11.030;2022-07-30T02:35:59;13.30;99.90
10911;DHT22;5508;49.150;11.030;2022-07-30T02:39:02;13.30;99.90
10911;DHT22;5508;49.150;11.030;2022-07-30T02:42:05;13.30;99.90
10911;DHT22;5508;49.150;11.030;2022-07-30T02:45:07;13.40;99.90
10911;DHT22;5508;49.150;11.030;2022-07-30T02:48:09;13.40;99.90
10911;DHT22;5508;49.150;11.030;2022-07-30T02:51:14;13.40;99.90
10911;DHT22;5508;49.150;11.030;2022-07-30T02:54:17;13.50;99.90
10911;DHT22;5508;49.150;11.030;2022-07-30T02:57:18;13.30;99.90
10911;DHT22;5508;49.150;11.030;2022-07-30T03:00:20;13.20;99.90
10911;DHT22;5508;49.150;11.030;2022-07-30T03:03:23;13.20;99.90
10911;DHT22;5508;49.150;11.030;2022-07-30T03:06:28;13.20;99.90
10911;DHT22;5508;49.150;11.030;2022-07-30T03:09:30;13.20;99.90
10911;DHT22;5508;49.150;11.030;2022-07-30T03:12:31;13.10;99.90
10911;DHT22;5508;49.150;11.030;2022-07-30T03:15:36;13.10;99.90
10911;DHT22;5508;49.150;11.030;2022-07-30T03:18:38;13.00;99.90
10911;DHT22;5508;49.150;11.030;2022-07-30T03:21:40;13.00;99.90
10911;DHT22;5508;49.150;11.030;2022-07-30T03:24:43;13.10;99.90
10911;DHT22;5508;49.150;11.030;2022-07-30T03:27:45;13.10;99.90
10911;DHT22;5508;49.150;11.030;2022-07-30T03:30:47;13.10;99.90
10911;DHT22;5508;49.150;11.030;2022-07-30T03:33:48;13.10;99.90
10911;DHT22;5508;49.150;11.030;2022-07-30T03:36:49;13.00;99.90
10911;DHT22;5508;49.150;11.030;2022-07-30T03:39:50;13.00;99.90
10911;DHT22;5508;49.150;11.030;2022-07-30T03:42:53;12.90;99.90
10911;DHT22;5508;49.150;11.030;2022-07-30T03:45:55;12.80;99.90
10911;DHT22;5508;49.150;11.030;2022-07-30T03:48:57;12.90;99.90
10911;DHT22;5508;49.150;11.030;2022-07-30T03:52:00;12.80;99.90
10911;DHT22;5508;49.150;11.030;2022-07-30T03:55:01;12.70;99.90
10911;DHT22;5508;49.150;11.030;2022-07-30T03:58:02;12.70;99.90
10911;DHT22;5508;49.150;11.030;2022-07-30T04:04:08;12.70;99.90
10911;DHT22;5508;49.150;11.030;2022-07-30T04:07:09;12.60;99.90
10911;DHT22;5508;49.150;11.030;2022-07-30T04:10:10;12.60;99.90
10911;DHT22;5508;49.150;11.030;2022-07-30T04:13:10;12.60;99.90
10911;DHT22;5508;49.150;11.030;2022-07-30T04:16:48;12.60;99.90
10911;DHT22;5508;49.150;11.030;2022-07-30T04:19:56;12.70;99.90
10911;DHT22;5508;49.150;11.030;2022-07-30T04:22:59;12.80;99.90
10911;DHT22;5508;49.150;11.030;2022-07-30T04:26:00;12.80;99.90
10911;DHT22;5508;49.150;11.030;2022-07-30T04:29:04;13.00;99.90
10911;DHT22;5508;49.150;11.030;2022-07-30T04:32:07;13.10;99.90
10911;DHT22;5508;49.150;11.030;2022-07-30T04:35:08;13.20;99.90
10911;DHT22;5508;49.150;11.030;2022-07-30T04:38:08;13.30;99.90
10911;DHT22;5508;49.150;11.030;2022-07-30T04:41:09;13.40;99.90
10911;DHT22;5508;49.150;11.030;2022-07-30T04:44:10;13.40;99.90
10911;DHT22;5508;49.150;11.030;2022-07-30T04:47:11;13.40;99.90
10911;DHT22;5508;49.150;11.030;2022-07-30T04:50:12;13.40;99.90
10911;DHT22;5508;49.150;11.030;2022-07-30T04:53:13;13.50;99.90
10911;DHT22;5508;49.150;11.030;2022-07-30T04:56:15;13.50;99.90
10911;DHT22;5508;49.150;11.030;2022-07-30T04:59:17;13.70;99.90
10911;DHT22;5508;49.150;11.030;2022-07-30T05:02:19;13.70;99.90
10911;DHT22;5508;49.150;11.030;2022-07-30T05:05:22;13.70;99.90
10911;DHT22;5508;49.150;11.030;2022-07-30T05:08:25;13.90;99.90
10911;DHT22;5508;49.150;11.030;2022-07-30T05:11:26;14.10;99.90
10911;DHT22;5508;49.150;11.030;2022-07-30T05:14:27;14.30;99.90
10911;DHT22;5508;49.150;11.030;2022-07-30T05:17:27;14.40;99.90
10911;DHT22;5508;49.150;11.030;2022-07-30T05:20:28;14.50;99.90
10911;DHT22;5508;49.150;11.030;2022-07-30T05:23:29;14.70;99.90
10911;DHT22;5508;49.150;11.030;2022-07-30T05:26:30;14.80;99.90
10911;DHT22;5508;49.150;11.030;2022-07-30T05:29:30;15.00;99.90
10911;DHT22;5508;49.150;11.030;2022-07-30T05:32:31;15.10;99.90
10911;DHT22;5508;49.150;11.030;2022-07-30T05:35:31;15.20;99.90
10911;DHT22;5508;49.150;11.030;2022-07-30T05:38:33;15.40;99.90
10911;DHT22;5508;49.150;11.030;2022-07-30T05:41:34;15.50;99.90
10911;DHT22;5508;49.150;11.030;2022-07-30T05:44:35;15.70;99.90
10911;DHT22;5508;49.150;11.030;2022-07-30T05:47:35;15.80;99.90
10911;DHT22;5508;49.150;11.030;2022-07-30T05:50:36;15.80;99.90
10911;DHT22;5508;49.150;11.030;2022-07-30T05:53:36;16.00;99.90
10911;DHT22;5508;49.150;11.030;2022-07-30T05:56:37;16.00;99.90
10911;DHT22;5508;49.150;11.030;2022-07-30T05:59:40;16.00;99.90
10911;DHT22;5508;49.150;11.030;2022-07-30T06:02:40;16.00;99.90
10911;DHT22;5508;49.150;11.030;2022-07-30T06:05:41;15.90;99.90
10911;DHT22;5508;49.150;11.030;2022-07-30T06:08:41;16.10;99.90
10911;DHT22;5508;49.150;11.030;2022-07-30T06:11:43;16.20;99.90
10911;DHT22;5508;49.150;11.030;2022-07-30T06:14:44;16.60;99.90
10911;DHT22;5508;49.150;11.030;2022-07-30T06:17:46;16.90;99.90
10911;DHT22;5508;49.150;11.030;2022-07-30T06:20:47;17.20;99.90
10911;DHT22;5508;49.150;11.030;2022-07-30T06:23:50;17.20;99.10
10911;DHT22;5508;49.150;11.030;2022-07-30T06:26:52;17.30;98.50
10911;DHT22;5508;49.150;11.030;2022-07-30T06:29:52;17.30;98.00
10911;DHT22;5508;49.150;11.030;2022-07-30T06:32:53;17.20;99.90
10911;DHT22;5508;49.150;11.030;2022-07-30T06:35:54;17.50;98.80
10911;DHT22;5508;49.150;11.030;2022-07-30T06:38:54;17.60;97.50
10911;DHT22;5508;49.150;11.030;2022-07-30T06:41:55;17.70;94.30
10911;DHT22;5508;49.150;11.030;2022-07-30T06:44:55;18.00;94.50
10911;DHT22;5508;49.150;11.030;2022-07-30T06:47:57;18.00;92.40
10911;DHT22;5508;49.150;11.030;2022-07-30T06:50:58;18.20;92.90
10911;DHT22;5508;49.150;11.030;2022-07-30T06:53:58;18.40;92.40
10911;DHT22;5508;49.150;11.030;2022-07-30T06:56:59;18.70;91.30
10911;DHT22;5508;49.150;11.030;2022-07-30T07:00:00;18.70;87.70
10911;DHT22;5508;49.150;11.030;2022-07-30T07:03:00;19.00;86.70
10911;DHT22;5508;49.150;11.030;2022-07-30T07:06:01;19.10;86.50
10911;DHT22;5508;49.150;11.030;2022-07-30T07:09:02;19.20;84.70
10911;DHT22;5508;49.150;11.030;2022-07-30T07:12:03;19.50;84.10
10911;DHT22;5508;49.150;11.030;2022-07-30T07:15:04;19.80;79.90
10911;DHT22;5508;49.150;11.030;2022-07-30T07:18:05;20.30;77.80
10911;DHT22;5508;49.150;11.030;2022-07-30T07:21:05;20.40;77.80
10911;DHT22;5508;49.150;11.030;2022-07-30T07:24:07;20.60;75.90
10911;DHT22;5508;49.150;11.030;2022-07-30T07:27:08;20.60;75.70
10911;DHT22;5508;49.150;11.030;2022-07-30T07:30:09;20.50;76.90
10911;DHT22;5508;49.150;11.030;2022-07-30T07:33:10;20.70;75.80
10911;DHT22;5508;49.150;11.030;2022-07-30T07:36:11;20.70;74.30
10911;DHT22;5508;49.150;11.030;2022-07-30T07:39:11;20.90;73.10
10911;DHT22;5508;49.150;11.030;2022-07-30T07:42:12;20.70;70.30
10911;DHT22;5508;49.150;11.030;2022-07-30T07:45:13;20.80;71.30
10911;DHT22;5508;49.150;11.030;2022-07-30T07:48:13;21.00;68.80
10911;DHT22;5508;49.150;11.030;2022-07-30T07:51:14;21.20;67.40
10911;DHT22;5508;49.150;11.030;2022-07-30T07:54:15;21.30;68.00
10911;DHT22;5508;49.150;11.030;2022-07-30T07:57:16;21.20;69.80
10911;DHT22;5508;49.150;11.030;2022-07-30T08:00:17;21.30;67.80
10911;DHT22;5508;49.150;11.030;2022-07-30T08:03:18;21.40;67.40
10911;DHT22;5508;49.150;11.030;2022-07-30T08:06:18;21.60;67.60
10911;DHT22;5508;49.150;11.030;2022-07-30T08:09:19;22.00;65.40
10911;DHT22;5508;49.150;11.030;2022-07-30T08:12:19;22.10;65.40
10911;DHT22;5508;49.150;11.030;2022-07-30T08:15:20;22.20;64.70
10911;DHT22;5508;49.150;11.030;2022-07-30T08:18:21;22.00;65.00
10911;DHT22;5508;49.150;11.030;2022-07-30T08:21:21;21.80;65.40
10911;DHT22;5508;49.150;11.030;2022-07-30T08:24:22;22.10;65.30
10911;DHT22;5508;49.150;11.030;2022-07-30T08:27:22;22.30;64.40
10911;DHT22;5508;49.150;11.030;2022-07-30T08:30:23;22.60;63.10
10911;DHT22;5508;49.150;11.030;2022-07-30T08:33:23;22.30;63.80
10911;DHT22;5508;49.150;11.030;2022-07-30T08:36:24;22.40;64.00
10911;DHT22;5508;49.150;11.030;2022-07-30T08:39:25;22.40;63.60
10911;DHT22;5508;49.150;11.030;2022-07-30T08:42:26;22.40;62.20
10911;DHT22;5508;49.150;11.030;2022-07-30T08:45:28;22.10;64.10
10911;DHT22;5508;49.150;11.030;2022-07-30T08:48:30;22.10;63.80
10911;DHT22;5508;49.150;11.030;2022-07-30T08:51:31;22.50;63.00
10911;DHT22;5508;49.150;11.030;2022-07-30T08:54:34;22.60;61.10
10911;DHT22;5508;49.150;11.030;2022-07-30T08:57:35;22.00;65.00
10911;DHT22;5508;49.150;11.030;2022-07-30T09:00:36;21.70;64.90
10911;DHT22;5508;49.150;11.030;2022-07-30T09:03:37;21.70;65.20
10911;DHT22;5508;49.150;11.030;2022-07-30T09:06:37;21.80;65.00
10911;DHT22;5508;49.150;11.030;2022-07-30T09:09:40;21.80;64.30
10911;DHT22;5508;49.150;11.030;2022-07-30T09:12:42;21.90;68.00
10911;DHT22;5508;49.150;11.030;2022-07-30T09:15:42;22.50;65.30
10911;DHT22;5508;49.150;11.030;2022-07-30T09:18:43;22.50;62.50
10911;DHT22;5508;49.150;11.030;2022-07-30T09:21:57;22.80;62.90
10911;DHT22;5508;49.150;11.030;2022-07-30T09:24:58;23.30;60.80
10911;DHT22;5508;49.150;11.030;2022-07-30T09:27:58;23.20;58.30
10911;DHT22;5508;49.150;11.030;2022-07-30T09:30:59;22.80;60.30
10911;DHT22;5508;49.150;11.030;2022-07-30T09:34:00;22.50;60.10
10911;DHT22;5508;49.150;11.030;2022-07-30T09:40:16;22.70;60.20
10911;DHT22;5508;49.150;11.030;2022-07-30T09:43:17;23.10;58.20
10911;DHT22;5508;49.150;11.030;2022-07-30T09:46:18;23.30;55.90
10911;DHT22;5508;49.150;11.030;2022-07-30T09:49:22;23.40;56.20
10911;DHT22;5508;49.150;11.030;2022-07-30T09:52:29;22.70;56.20
10911;DHT22;5508;49.150;11.030;2022-07-30T09:55:34;22.80;58.10
10911;DHT22;5508;49.150;11.030;2022-07-30T09:58:40;23.00;56.70
10911;DHT22;5508;49.150;11.030;2022-07-30T10:01:51;23.50;53.60
10911;DHT22;5508;49.150;11.030;2022-07-30T10:04:52;23.60;53.60
10911;DHT22;5508;49.150;11.030;2022-07-30T10:07:58;23.90;54.10
10911;DHT22;5508;49.150;11.030;2022-07-30T10:10:59;24.10;54.20
10911;DHT22;5508;49.150;11.030;2022-07-30T10:14:00;24.20;53.30
10911;DHT22;5508;49.150;11.030;2022-07-30T10:17:03;23.90;53.40
10911;DHT22;5508;49.150;11.030;2022-07-30T10:20:06;23.40;53.80
10911;DHT22;5508;49.150;11.030;2022-07-30T10:23:07;22.90;55.70
10911;DHT22;5508;49.150;11.030;2022-07-30T10:26:09;22.50;57.80
10911;DHT22;5508;49.150;11.030;2022-07-30T10:29:09;22.20;58.50
10911;DHT22;5508;49.150;11.030;2022-07-30T10:32:10;22.30;58.60
10911;DHT22;5508;49.150;11.030;2022-07-30T10:35:11;22.60;59.40
10911;DHT22;5508;49.150;11.030;2022-07-30T10:38:14;23.00;56.20
10911;DHT22;5508;49.150;11.030;2022-07-30T10:47:50;23.50;50.30
10911;DHT22;5508;49.150;11.030;2022-07-30T10:50:55;23.70;48.60
10911;DHT22;5508;49.150;11.030;2022-07-30T10:53:56;24.30;51.30
10911;DHT22;5508;49.150;11.030;2022-07-30T10:57:04;24.60;47.80
10911;DHT22;5508;49.150;11.030;2022-07-30T11:15:55;22.70;54.70
10911;DHT22;5508;49.150;11.030;2022-07-30T11:19:10;22.60;54.10
10911;DHT22;5508;49.150;11.030;2022-07-30T11:22:25;22.50;54.00
10911;DHT22;5508;49.150;11.030;2022-07-30T11:28:45;22.90;54.00
10911;DHT22;5508;49.150;11.030;2022-07-30T11:31:46;23.40;52.20
10911;DHT22;5508;49.150;11.030;2022-07-30T11:34:46;23.70;50.20
10911;DHT22;5508;49.150;11.030;2022-07-30T11:44:26;24.60;44.60
10911;DHT22;5508;49.150;11.030;2022-07-30T11:47:30;25.00;43.30
10911;DHT22;5508;49.150;11.030;2022-07-30T11:50:33;24.70;43.30
10911;DHT22;5508;49.150;11.030;2022-07-30T11:53:34;24.80;41.80
10911;DHT22;5508;49.150;11.030;2022-07-30T11:56:35;24.80;40.70
10911;DHT22;5508;49.150;11.030;2022-07-30T11:59:55;24.90;41.30
10911;DHT22;5508;49.150;11.030;2022-07-30T12:02:56;24.60;39.50
10911;DHT22;5508;49.150;11.030;2022-07-30T12:06:04;24.80;37.50
10911;DHT22;5508;49.150;11.030;2022-07-30T12:09:05;25.00;38.50
10911;DHT22;5508;49.150;11.030;2022-07-30T12:12:22;25.00;36.50
10911;DHT22;5508;49.150;11.030;2022-07-30T12:15:29;25.20;38.90
10911;DHT22;5508;49.150;11.030;2022-07-30T12:18:29;25.20;39.10
10911;DHT22;5508;49.150;11.030;2022-07-30T12:21:30;25.40;37.40
10911;DHT22;5508;49.150;11.030;2022-07-30T12:24:31;25.80;35.40
10911;DHT22;5508;49.150;11.030;2022-07-30T12:27:31;25.90;34.70
10911;DHT22;5508;49.150;11.030;2022-07-30T12:30:32;25.60;34.10
10911;DHT22;5508;49.150;11.030;2022-07-30T12:33:33;25.50;34.10
10911;DHT22;5508;49.150;11.030;2022-07-30T12:36:34;25.60;33.80
10911;DHT22;5508;49.150;11.030;2022-07-30T12:39:35;25.60;33.30
10911;DHT22;5508;49.150;11.030;2022-07-30T12:42:36;25.80;32.80
10911;DHT22;5508;49.150;11.030;2022-07-30T12:45:38;25.90;33.10
10911;DHT22;5508;49.150;11.030;2022-07-30T12:48:49;26.10;33.80
10911;DHT22;5508;49.150;11.030;2022-07-30T12:51:52;26.20;34.00
10911;DHT22;5508;49.150;11.030;2022-07-30T12:54:57;26.50;34.00
10911;DHT22;5508;49.150;11.030;2022-07-30T13:01:00;26.10;31.80
10911;DHT22;5508;49.150;11.030;2022-07-30T13:04:05;26.10;32.30
10911;DHT22;5508;49.150;11.030;2022-07-30T13:07:09;26.00;31.20
10911;DHT22;5508;49.150;11.030;2022-07-30T13:10:11;25.80;31.10
10911;DHT22;5508;49.150;11.030;2022-07-30T13:13:18;25.90;32.10
10911;DHT22;5508;49.150;11.030;2022-07-30T13:16:19;26.10;32.50
10911;DHT22;5508;49.150;11.030;2022-07-30T13:19:20;26.00;32.90
10911;DHT22;5508;49.150;11.030;2022-07-30T13:22:20;25.70;33.50
10911;DHT22;5508;49.150;11.030;2022-07-30T13:25:21;26.00;33.00
10911;DHT22;5508;49.150;11.030;2022-07-30T13:28:22;25.90;31.70
10911;DHT22;5508;49.150;11.030;2022-07-30T13:31:23;25.40;33.50
10911;DHT22;5508;49.150;11.030;2022-07-30T13:34:24;25.80;33.00
10911;DHT22;5508;49.150;11.030;2022-07-30T13:37:25;25.90;33.60
10911;DHT22;5508;49.150;11.030;2022-07-30T13:40:25;25.90;33.70
10911;DHT22;5508;49.150;11.030;2022-07-30T13:43:26;26.20;33.80
10911;DHT22;5508;49.150;11.030;2022-07-30T13:46:27;26.30;32.80
10911;DHT22;5508;49.150;11.030;2022-07-30T13:49:27;25.80;33.50
10911;DHT22;5508;49.150;11.030;2022-07-30T13:52:28;26.20;33.50
10911;DHT22;5508;49.150;11.030;2022-07-30T13:55:29;26.50;33.40
10911;DHT22;5508;49.150;11.030;2022-07-30T13:58:29;26.70;33.60
10911;DHT22;5508;49.150;11.030;2022-07-30T14:01:31;26.20;33.00
10911;DHT22;5508;49.150;11.030;2022-07-30T14:04:31;25.70;30.70
10911;DHT22;5508;49.150;11.030;2022-07-30T14:07:33;25.40;32.60
10911;DHT22;5508;49.150;11.030;2022-07-30T14:10:40;25.10;34.60
10911;DHT22;5508;49.150;11.030;2022-07-30T14:13:40;25.10;35.20
10911;DHT22;5508;49.150;11.030;2022-07-30T14:16:41;25.40;34.60
10911;DHT22;5508;49.150;11.030;2022-07-30T14:19:42;26.00;34.30
10911;DHT22;5508;49.150;11.030;2022-07-30T14:22:43;26.30;32.70
10911;DHT22;5508;49.150;11.030;2022-07-30T14:25:43;25.80;33.40
10911;DHT22;5508;49.150;11.030;2022-07-30T14:28:44;25.70;33.40
10911;DHT22;5508;49.150;11.030;2022-07-30T14:31:44;25.50;34.10
10911;DHT22;5508;49.150;11.030;2022-07-30T14:34:45;25.10;35.00
10911;DHT22;5508;49.150;11.030;2022-07-30T14:37:46;25.00;35.60
10911;DHT22;5508;49.150;11.030;2022-07-30T14:40:46;25.30;34.80
10911;DHT22;5508;49.150;11.030;2022-07-30T14:43:47;25.60;34.40
10911;DHT22;5508;49.150;11.030;2022-07-30T14:46:47;25.60;34.30
10911;DHT22;5508;49.150;11.030;2022-07-30T14:49:48;25.60;34.70
10911;DHT22;5508;49.150;11.030;2022-07-30T14:52:49;25.40;35.10
10911;DHT22;5508;49.150;11.030;2022-07-30T14:55:51;25.20;35.60
10911;DHT22;5508;49.150;11.030;2022-07-30T14:58:51;25.20;36.20
10911;DHT22;5508;49.150;11.030;2022-07-30T15:01:54;25.10;36.00
10911;DHT22;5508;49.150;11.030;2022-07-30T15:04:55;24.90;35.40
10911;DHT22;5508;49.150;11.030;2022-07-30T15:07:55;24.70;36.30
10911;DHT22;5508;49.150;11.030;2022-07-30T15:10:56;24.70;35.80
10911;DHT22;5508;49.150;11.030;2022-07-30T15:13:56;24.40;36.80
10911;DHT22;5508;49.150;11.030;2022-07-30T15:16:57;24.80;35.40
10911;DHT22;5508;49.150;11.030;2022-07-30T15:19:58;25.30;35.50
10911;DHT22;5508;49.150;11.030;2022-07-30T15:22:59;25.50;35.40
10911;DHT22;5508;49.150;11.030;2022-07-30T15:26:00;25.60;35.00
10911;DHT22;5508;49.150;11.030;2022-07-30T15:29:03;25.70;33.40
10911;DHT22;5508;49.150;11.030;2022-07-30T15:32:04;25.50;34.20
10911;DHT22;5508;49.150;11.030;2022-07-30T15:35:05;25.60;34.30
10911;DHT22;5508;49.150;11.030;2022-07-30T15:38:06;25.50;34.50
10911;DHT22;5508;49.150;11.030;2022-07-30T15:41:06;25.30;34.20
10911;DHT22;5508;49.150;11.030;2022-07-30T15:44:07;25.20;34.80
10911;DHT22;5508;49.150;11.030;2022-07-30T15:47:07;25.10;35.30
10911;DHT22;5508;49.150;11.030;2022-07-30T15:50:08;24.70;35.30
10911;DHT22;5508;49.150;11.030;2022-07-30T15:53:09;24.40;35.90
10911;DHT22;5508;49.150;11.030;2022-07-30T15:56:10;24.50;36.70
10911;DHT22;5508;49.150;11.030;2022-07-30T15:59:12;24.60;36.00
10911;DHT22;5508;49.150;11.030;2022-07-30T16:02:12;24.50;36.50
10911;DHT22;5508;49.150;11.030;2022-07-30T16:05:13;24.40;36.00
10911;DHT22;5508;49.150;11.030;2022-07-30T16:08:13;24.40;36.70
10911;DHT22;5508;49.150;11.030;2022-07-30T16:11:14;24.50;35.50
10911;DHT22;5508;49.150;11.030;2022-07-30T16:14:16;24.60;35.90
10911;DHT22;5508;49.150;11.030;2022-07-30T16:17:16;24.60;35.80
10911;DHT22;5508;49.150;11.030;2022-07-30T16:20:17;24.50;35.70
10911;DHT22;5508;49.150;11.030;2022-07-30T16:23:17;24.50;36.20
10911;DHT22;5508;49.150;11.030;2022-07-30T16:26:19;24.60;35.30
10911;DHT22;5508;49.150;11.030;2022-07-30T16:29:19;24.80;35.40
10911;DHT22;5508;49.150;11.030;2022-07-30T16:32:20;24.70;34.40
10911;DHT22;5508;49.150;11.030;2022-07-30T16:35:21;24.50;35.10
10911;DHT22;5508;49.150;11.030;2022-07-30T16:38:22;24.50;35.60
10911;DHT22;5508;49.150;11.030;2022-07-30T16:41:23;24.60;35.10
10911;DHT22;5508;49.150;11.030;2022-07-30T16:44:23;24.60;35.80
10911;DHT22;5508;49.150;11.030;2022-07-30T16:47:26;24.60;35.00
10911;DHT22;5508;49.150;11.030;2022-07-30T16:50:26;24.60;35.40
10911;DHT22;5508;49.150;11.030;2022-07-30T16:53:27;24.30;35.10
10911;DHT22;5508;49.150;11.030;2022-07-30T16:56:29;24.40;35.90
10911;DHT22;5508;49.150;11.030;2022-07-30T16:59:29;24.30;39.00
10911;DHT22;5508;49.150;11.030;2022-07-30T17:02:30;24.00;43.00
10911;DHT22;5508;49.150;11.030;2022-07-30T17:05:34;23.70;44.10
10911;DHT22;5508;49.150;11.030;2022-07-30T17:08:34;23.60;44.40
10911;DHT22;5508;49.150;11.030;2022-07-30T17:11:35;23.30;45.80
10911;DHT22;5508;49.150;11.030;2022-07-30T17:14:36;23.10;47.40
10911;DHT22;5508;49.150;11.030;2022-07-30T17:17:36;23.00;47.90
10911;DHT22;5508;49.150;11.030;2022-07-30T17:20:37;22.80;48.60
10911;DHT22;5508;49.150;11.030;2022-07-30T17:23:37;22.70;48.80
10911;DHT22;5508;49.150;11.030;2022-07-30T17:26:39;22.50;49.50
10911;DHT22;5508;49.150;11.030;2022-07-30T17:29:42;22.40;50.80
10911;DHT22;5508;49.150;11.030;2022-07-30T17:32:42;22.30;51.30
10911;DHT22;5508;49.150;11.030;2022-07-30T17:35:43;22.20;51.40
10911;DHT22;5508;49.150;11.030;2022-07-30T17:38:43;22.10;52.10
10911;DHT22;5508;49.150;11.030;2022-07-30T17:41:44;21.90;52.50
10911;DHT22;5508;49.150;11.030;2022-07-30T17:44:44;21.80;52.50
10911;DHT22;5508;49.150;11.030;2022-07-30T17:47:45;21.60;52.80
10911;DHT22;5508;49.150;11.030;2022-07-30T17:50:46;21.40;53.70
10911;DHT22;5508;49.150;11.030;2022-07-30T17:53:47;21.30;54.40
10911;DHT22;5508;49.150;11.030;2022-07-30T17:56:48;21.30;54.20
10911;DHT22;5508;49.150;11.030;2022-07-30T17:59:48;21.10;54.90
10911;DHT22;5508;49.150;11.030;2022-07-30T18:02:49;21.00;55.20
10911;DHT22;5508;49.150;11.030;2022-07-30T18:05:50;21.00;55.90
10911;DHT22;5508;49.150;11.030;2022-07-30T18:08:50;20.90;56.20
10911;DHT22;5508;49.150;11.030;2022-07-30T18:11:51;20.80;56.50
10911;DHT22;5508;49.150;11.030;2022-07-30T18:14:51;20.80;57.20
10911;DHT22;5508;49.150;11.030;2022-07-30T18:17:52;20.80;57.00
10911;DHT22;5508;49.150;11.030;2022-07-30T18:20:53;20.70;57.10
10911;DHT22;5508;49.150;11.030;2022-07-30T18:23:53;20.70;57.60
10911;DHT22;5508;49.150;11.030;2022-07-30T18:26:54;20.60;57.90
10911;DHT22;5508;49.150;11.030;2022-07-30T18:29:55;20.50;57.80
10911;DHT22;5508;49.150;11.030;2022-07-30T18:32:55;20.40;58.00
10911;DHT22;5508;49.150;11.030;2022-07-30T18:35:56;20.40;58.00
10911;DHT22;5508;49.150;11.030;2022-07-30T18:38:56;20.30;58.60
10911;DHT22;5508;49.150;11.030;2022-07-30T18:41:57;20.20;59.10
10911;DHT22;5508;49.150;11.030;2022-07-30T18:44:57;20.10;59.10
10911;DHT22;5508;49.150;11.030;2022-07-30T18:47:58;20.00;59.40
10911;DHT22;5508;49.150;11.030;2022-07-30T18:50:59;19.90;60.50
10911;DHT22;5508;49.150;11.030;2022-07-30T18:53:59;19.80;60.70
10911;DHT22;5508;49.150;11.030;2022-07-30T18:57:00;19.80;60.40
10911;DHT22;5508;49.150;11.030;2022-07-30T19:00:01;19.70;61.00
10911;DHT22;5508;49.150;11.030;2022-07-30T19:03:02;19.60;62.80
10911;DHT22;5508;49.150;11.030;2022-07-30T19:06:03;19.40;63.40
10911;DHT22;5508;49.150;11.030;2022-07-30T19:09:04;19.30;63.90
10911;DHT22;5508;49.150;11.030;2022-07-30T19:12:05;19.20;63.90
10911;DHT22;5508;49.150;11.030;2022-07-30T19:15:06;19.10;65.00
10911;DHT22;5508;49.150;11.030;2022-07-30T19:18:07;19.00;64.80
10911;DHT22;5508;49.150;11.030;2022-07-30T19:21:09;18.90;65.50
10911;DHT22;5508;49.150;11.030;2022-07-30T19:24:10;18.80;65.60
10911;DHT22;5508;49.150;11.030;2022-07-30T19:27:11;18.70;65.30
10911;DHT22;5508;49.150;11.030;2022-07-30T19:30:11;18.60;66.60
10911;DHT22;5508;49.150;11.030;2022-07-30T19:33:12;18.50;66.80
10911;DHT22;5508;49.150;11.030;2022-07-30T19:36:13;18.50;67.60
10911;DHT22;5508;49.150;11.030;2022-07-30T19:39:15;18.40;68.20
10911;DHT22;5508;49.150;11.030;2022-07-30T19:42:16;18.30;68.20
10911;DHT22;5508;49.150;11.030;2022-07-30T19:45:16;18.10;70.30
10911;DHT22;5508;49.150;11.030;2022-07-30T19:48:17;18.00;70.10
10911;DHT22;5508;49.150;11.030;2022-07-30T19:51:18;17.80;70.20
10911;DHT22;5508;49.150;11.030;2022-07-30T19:54:18;17.70;70.90